sensor_id;sensor_type;location;lat;lon;timestamp;temperature;humidity
23411;DHT22;11878;51.774;7.220;2023-04-06T00:00:18;2.20;99.90
23411;DHT22;11878;51.774;7.220;2023-04-06T00:03:20;2.10;99.90
23411;DHT22;11878;51.774;7.220;2023-04-06T00:06:22;2.00;99.90
23411;DHT22;11878;51.774;7.220;2023-04-06T00:09:23;2.00;99.90
23411;DHT22;11878;51.774;7.220;2023-04-06T00:12:25;2.00;99.90
23411;DHT22;11878;51.774;7.220;2023-04-06T00:15:27;2.00;99.90
23411;DHT22;11878;51.774;7.220;2023-04-06T00:18:29;1.90;99.90
23411;DHT22;11878;51.774;7.220;2023-04-06T00:21:30;1.90;99.90
23411;DHT22;11878;51.774;7.220;2023-04-06T00:24:33;1.90;99.90
23411;DHT22;11878;51.774;7.220;2023-04-06T00:27:35;2.00;99.90
23411;DHT22;11878;51.774;7.220;2023-04-06T00:30:37;1.90;99.90
23411;DHT22;11878;51.774;7.220;2023-04-06T00:33:39;1.90;99.90
23411;DHT22;11878;51.774;7.220;2023-04-06T00:36:41;1.80;99.90
23411;DHT22;11878;51.774;7.220;2023-04-06T00:43:13;1.80;99.90
23411;DHT22;11878;51.774;7.220;2023-04-06T00:46:15;1.70;99.90
23411;DHT22;11878;51.774;7.220;2023-04-06T00:49:18;1.70;99.90
23411;DHT22;11878;51.774;7.220;2023-04-06T00:52:20;1.60;99.90
23411;DHT22;11878;51.774;7.220;2023-04-06T00:55:23;1.60;99.90
23411;DHT22;11878;51.774;7.220;2023-04-06T00:58:25;1.70;99.90
23411;DHT22;11878;51.774;7.220;2023-04-06T01:01:35;1.60;99.90
23411;DHT22;11878;51.774;7.220;2023-04-06T01:04:47;1.60;99.90
23411;DHT22;11878;51.774;7.220;2023-04-06T01:07:58;1.50;99.90
23411;DHT22;11878;51.774;7.220;2023-04-06T01:11:02;1.50;99.90
23411;DHT22;11878;51.774;7.220;2023-04-06T01:14:04;1.60;99.90
23411;DHT22;11878;51.774;7.220;2023-04-06T01:17:21;1.60;99.90
23411;DHT22;11878;51.774;7.220;2023-04-06T01:20:24;1.50;99.90
23411;DHT22;11878;51.774;7.220;2023-04-06T01:23:26;1.50;99.90
23411;DHT22;11878;51.774;7.220;2023-04-06T01:26:28;1.50;99.90
23411;DHT22;11878;51.774;7.220;2023-04-06T01:29:34;1.60;99.90
23411;DHT22;11878;51.774;7.220;2023-04-06T01:32:38;1.40;99.90
23411;DHT22;11878;51.774;7.220;2023-04-06T01:35:41;1.40;99.90
23411;DHT22;11878;51.774;7.220;2023-04-06T01:38:54;1.40;99.90
23411;DHT22;11878;51.774;7.220;2023-04-06T01:42:04;1.30;99.90
23411;DHT22;11878;51.774;7.220;2023-04-06T01:45:08;1.40;99.90
23411;DHT22;11878;51.774;7.220;2023-04-06T01:48:11;1.40;99.90
23411;DHT22;11878;51.774;7.220;2023-04-06T01:51:13;1.30;99.90
23411;DHT22;11878;51.774;7.220;2023-04-06T01:54:22;1.30;99.90
23411;DHT22;11878;51.774;7.220;2023-04-06T01:57:38;1.40;99.90
23411;DHT22;11878;51.774;7.220;2023-04-06T02:00:50;1.40;99.90
23411;DHT22;11878;51.774;7.220;2023-04-06T02:03:52;1.10;99.90
23411;DHT22;11878;51.774;7.220;2023-04-06T02:10:18;1.10;99.90
23411;DHT22;11878;51.774;7.220;2023-04-06T02:13:20;1.20;99.90
23411;DHT22;11878;51.774;7.220;2023-04-06T02:16:26;1.30;99.90
23411;DHT22;11878;51.774;7.220;2023-04-06T02:19:28;1.20;99.90
23411;DHT22;11878;51.774;7.220;2023-04-06T02:22:29;1.10;99.90
23411;DHT22;11878;51.774;7.220;2023-04-06T02:25:31;1.10;99.90
23411;DHT22;11878;51.774;7.220;2023-04-06T02:28:33;1.10;99.90
23411;DHT22;11878;51.774;7.220;2023-04-06T02:31:35;1.00;99.90
23411;DHT22;11878;51.774;7.220;2023-04-06T02:34:38;1.00;99.90
23411;DHT22;11878;51.774;7.220;2023-04-06T02:37:40;1.00;99.90
23411;DHT22;11878;51.774;7.220;2023-04-06T02:40:42;1.10;99.90
23411;DHT22;11878;51.774;7.220;2023-04-06T02:44:03;0.90;99.90
23411;DHT22;11878;51.774;7.220;2023-04-06T02:47:13;0.80;99.90
23411;DHT22;11878;51.774;7.220;2023-04-06T02:50:20;0.80;99.90
23411;DHT22;11878;51.774;7.220;2023-04-06T02:53:29;1.10;99.90
23411;DHT22;11878;51.774;7.220;2023-04-06T02:56:31;0.80;99.90
23411;DHT22;11878;51.774;7.220;2023-04-06T02:59:33;0.80;99.90
23411;DHT22;11878;51.774;7.220;2023-04-06T03:02:45;0.90;99.90
23411;DHT22;11878;51.774;7.220;2023-04-06T03:05:50;0.80;99.90
23411;DHT22;11878;51.774;7.220;2023-04-06T03:08:59;0.70;99.90
23411;DHT22;11878;51.774;7.220;2023-04-06T03:12:01;1.80;99.90
23411;DHT22;11878;51.774;7.220;2023-04-06T03:15:08;0.80;99.90
23411;DHT22;11878;51.774;7.220;2023-04-06T03:18:12;0.80;99.90
23411;DHT22;11878;51.774;7.220;2023-04-06T03:21:19;0.80;99.90
23411;DHT22;11878;51.774;7.220;2023-04-06T03:24:23;0.80;99.90
23411;DHT22;11878;51.774;7.220;2023-04-06T03:27:25;0.90;99.90
23411;DHT22;11878;51.774;7.220;2023-04-06T03:30:28;0.70;99.90
23411;DHT22;11878;51.774;7.220;2023-04-06T03:33:30;0.80;99.90
23411;DHT22;11878;51.774;7.220;2023-04-06T03:36:34;0.70;99.90
23411;DHT22;11878;51.774;7.220;2023-04-06T03:39:37;0.70;99.90
23411;DHT22;11878;51.774;7.220;2023-04-06T03:42:39;0.70;99.90
23411;DHT22;11878;51.774;7.220;2023-04-06T03:45:46;0.80;99.90
23411;DHT22;11878;51.774;7.220;2023-04-06T03:48:49;0.80;99.90
23411;DHT22;11878;51.774;7.220;2023-04-06T03:51:53;0.70;99.90
23411;DHT22;11878;51.774;7.220;2023-04-06T03:54:55;0.60;99.90
23411;DHT22;11878;51.774;7.220;2023-04-06T03:57:56;0.70;99.90
23411;DHT22;11878;51.774;7.220;2023-04-06T04:00:58;0.60;99.90
23411;DHT22;11878;51.774;7.220;2023-04-06T04:04:01;0.60;99.90
23411;DHT22;11878;51.774;7.220;2023-04-06T04:07:05;0.50;99.90
23411;DHT22;11878;51.774;7.220;2023-04-06T04:10:08;0.30;99.90
23411;DHT22;11878;51.774;7.220;2023-04-06T04:13:10;0.30;99.90
23411;DHT22;11878;51.774;7.220;2023-04-06T04:16:12;0.30;99.90
23411;DHT22;11878;51.774;7.220;2023-04-06T04:19:13;0.30;99.90
23411;DHT22;11878;51.774;7.220;2023-04-06T04:22:15;0.30;99.90
23411;DHT22;11878;51.774;7.220;2023-04-06T04:25:18;0.20;99.90
23411;DHT22;11878;51.774;7.220;2023-04-06T04:28:23;0.10;99.90
23411;DHT22;11878;51.774;7.220;2023-04-06T04:31:27;0.10;99.90
23411;DHT22;11878;51.774;7.220;2023-04-06T04:34:34;0.30;99.90
23411;DHT22;11878;51.774;7.220;2023-04-06T04:37:37;0.20;99.90
23411;DHT22;11878;51.774;7.220;2023-04-06T04:40:39;0.10;99.90
23411;DHT22;11878;51.774;7.220;2023-04-06T04:43:44;0.20;99.90
23411;DHT22;11878;51.774;7.220;2023-04-06T04:46:48;0.20;99.90
23411;DHT22;11878;51.774;7.220;2023-04-06T04:49:53;0.20;99.90
23411;DHT22;11878;51.774;7.220;2023-04-06T04:52:57;0.10;99.90
23411;DHT22;11878;51.774;7.220;2023-04-06T04:56:02;0.70;99.90
23411;DHT22;11878;51.774;7.220;2023-04-06T04:59:04;0.10;99.90
23411;DHT22;11878;51.774;7.220;2023-04-06T05:02:11;0.10;99.90
23411;DHT22;11878;51.774;7.220;2023-04-06T05:05:35;0.20;99.90
23411;DHT22;11878;51.774;7.220;2023-04-06T05:08:40;0.10;99.90
23411;DHT22;11878;51.774;7.220;2023-04-06T05:11:43;0.10;99.90
23411;DHT22;11878;51.774;7.220;2023-04-06T05:14:45;0.00;99.90
23411;DHT22;11878;51.774;7.220;2023-04-06T05:17:50;0.10;99.90
23411;DHT22;11878;51.774;7.220;2023-04-06T05:20:57;0.10;99.90
23411;DHT22;11878;51.774;7.220;2023-04-06T05:24:07;0.10;99.90
23411;DHT22;11878;51.774;7.220;2023-04-06T05:27:11;0.00;99.90
23411;DHT22;11878;51.774;7.220;2023-04-06T05:30:13;0.10;99.90
23411;DHT22;11878;51.774;7.220;2023-04-06T05:33:19;0.10;99.90
23411;DHT22;11878;51.774;7.220;2023-04-06T05:36:36;0.40;99.90
23411;DHT22;11878;51.774;7.220;2023-04-06T05:39:45;0.40;99.90
23411;DHT22;11878;51.774;7.220;2023-04-06T05:42:47;0.30;99.90
23411;DHT22;11878;51.774;7.220;2023-04-06T05:45:51;0.50;99.90
23411;DHT22;11878;51.774;7.220;2023-04-06T05:48:52;0.60;99.90
23411;DHT22;11878;51.774;7.220;2023-04-06T05:51:59;0.60;99.90
23411;DHT22;11878;51.774;7.220;2023-04-06T05:55:01;0.70;99.90
23411;DHT22;11878;51.774;7.220;2023-04-06T05:58:05;0.80;99.90
23411;DHT22;11878;51.774;7.220;2023-04-06T06:01:07;0.70;99.90
23411;DHT22;11878;51.774;7.220;2023-04-06T06:04:16;0.80;99.90
23411;DHT22;11878;51.774;7.220;2023-04-06T06:07:20;1.00;99.90
23411;DHT22;11878;51.774;7.220;2023-04-06T06:10:29;1.10;99.90
23411;DHT22;11878;51.774;7.220;2023-04-06T06:13:31;1.10;99.90
23411;DHT22;11878;51.774;7.220;2023-04-06T06:16:34;1.20;99.90
23411;DHT22;11878;51.774;7.220;2023-04-06T06:19:37;1.30;99.90
23411;DHT22;11878;51.774;7.220;2023-04-06T06:22:41;1.40;99.90
23411;DHT22;11878;51.774;7.220;2023-04-06T06:25:48;1.60;99.90
23411;DHT22;11878;51.774;7.220;2023-04-06T06:28:51;1.70;99.90
23411;DHT22;11878;51.774;7.220;2023-04-06T06:31:53;1.90;99.90
23411;DHT22;11878;51.774;7.220;2023-04-06T06:34:55;2.00;99.90
23411;DHT22;11878;51.774;7.220;2023-04-06T06:37:57;2.20;99.90
23411;DHT22;11878;51.774;7.220;2023-04-06T06:41:01;2.20;99.90
23411;DHT22;11878;51.774;7.220;2023-04-06T06:44:06;2.30;99.90
23411;DHT22;11878;51.774;7.220;2023-04-06T06:47:09;2.70;99.90
23411;DHT22;11878;51.774;7.220;2023-04-06T06:50:11;2.60;99.90
23411;DHT22;11878;51.774;7.220;2023-04-06T06:53:13;2.70;99.90
23411;DHT22;11878;51.774;7.220;2023-04-06T06:56:16;2.70;99.90
23411;DHT22;11878;51.774;7.220;2023-04-06T06:59:18;2.90;99.90
23411;DHT22;11878;51.774;7.220;2023-04-06T07:02:20;3.00;99.90
23411;DHT22;11878;51.774;7.220;2023-04-06T07:05:22;4.10;99.90
23411;DHT22;11878;51.774;7.220;2023-04-06T07:08:31;3.30;99.90
23411;DHT22;11878;51.774;7.220;2023-04-06T07:11:33;3.40;99.90
23411;DHT22;11878;51.774;7.220;2023-04-06T07:14:36;5.30;99.90
23411;DHT22;11878;51.774;7.220;2023-04-06T07:17:38;3.70;99.90
23411;DHT22;11878;51.774;7.220;2023-04-06T07:20:43;3.90;99.90
23411;DHT22;11878;51.774;7.220;2023-04-06T07:23:45;4.10;99.90
23411;DHT22;11878;51.774;7.220;2023-04-06T07:26:50;4.30;99.90
23411;DHT22;11878;51.774;7.220;2023-04-06T07:29:53;4.50;99.90
23411;DHT22;11878;51.774;7.220;2023-04-06T07:32:56;4.70;99.90
23411;DHT22;11878;51.774;7.220;2023-04-06T07:35:58;4.80;99.90
23411;DHT22;11878;51.774;7.220;2023-04-06T07:39:01;4.90;99.90
23411;DHT22;11878;51.774;7.220;2023-04-06T07:42:03;5.10;99.90
23411;DHT22;11878;51.774;7.220;2023-04-06T07:45:06;5.20;99.90
23411;DHT22;11878;51.774;7.220;2023-04-06T07:48:08;4.70;99.90
23411;DHT22;11878;51.774;7.220;2023-04-06T07:51:10;5.80;99.90
23411;DHT22;11878;51.774;7.220;2023-04-06T07:54:17;6.20;99.90
23411;DHT22;11878;51.774;7.220;2023-04-06T07:57:20;6.70;99.90
23411;DHT22;11878;51.774;7.220;2023-04-06T08:00:22;6.70;99.90
23411;DHT22;11878;51.774;7.220;2023-04-06T08:03:24;6.00;99.90
23411;DHT22;11878;51.774;7.220;2023-04-06T08:06:27;6.40;99.90
23411;DHT22;11878;51.774;7.220;2023-04-06T08:09:29;6.90;99.80
23411;DHT22;11878;51.774;7.220;2023-04-06T08:12:34;6.60;99.40
23411;DHT22;11878;51.774;7.220;2023-04-06T08:15:36;7.70;99.90
23411;DHT22;11878;51.774;7.220;2023-04-06T08:18:38;6.50;99.50
23411;DHT22;11878;51.774;7.220;2023-04-06T08:21:40;6.80;99.90
23411;DHT22;11878;51.774;7.220;2023-04-06T08:24:43;7.40;98.90
23411;DHT22;11878;51.774;7.220;2023-04-06T08:27:45;7.20;98.20
23411;DHT22;11878;51.774;7.220;2023-04-06T08:30:46;7.50;98.00
23411;DHT22;11878;51.774;7.220;2023-04-06T08:33:49;7.30;95.00
23411;DHT22;11878;51.774;7.220;2023-04-06T08:36:51;8.00;94.60
23411;DHT22;11878;51.774;7.220;2023-04-06T08:39:53;7.80;91.70
23411;DHT22;11878;51.774;7.220;2023-04-06T08:42:56;9.40;92.90
23411;DHT22;11878;51.774;7.220;2023-04-06T08:46:01;8.60;90.40
23411;DHT22;11878;51.774;7.220;2023-04-06T08:49:03;9.70;91.20
23411;DHT22;11878;51.774;7.220;2023-04-06T08:52:11;9.10;91.00
23411;DHT22;11878;51.774;7.220;2023-04-06T08:55:14;9.60;89.80
23411;DHT22;11878;51.774;7.220;2023-04-06T08:58:17;9.50;84.90
23411;DHT22;11878;51.774;7.220;2023-04-06T09:01:40;9.80;90.90
23411;DHT22;11878;51.774;7.220;2023-04-06T09:04:49;10.20;74.80
23411;DHT22;11878;51.774;7.220;2023-04-06T09:07:54;10.50;81.60
23411;DHT22;11878;51.774;7.220;2023-04-06T09:10:56;11.10;73.80
23411;DHT22;11878;51.774;7.220;2023-04-06T09:13:57;10.80;73.60
23411;DHT22;11878;51.774;7.220;2023-04-06T09:17:00;10.80;69.10
23411;DHT22;11878;51.774;7.220;2023-04-06T09:20:03;11.50;68.80
23411;DHT22;11878;51.774;7.220;2023-04-06T09:23:05;10.60;69.10
23411;DHT22;11878;51.774;7.220;2023-04-06T09:26:11;11.20;70.00
23411;DHT22;11878;51.774;7.220;2023-04-06T09:29:24;11.00;70.20
23411;DHT22;11878;51.774;7.220;2023-04-06T09:32:28;11.60;66.70
23411;DHT22;11878;51.774;7.220;2023-04-06T09:35:31;11.20;71.20
23411;DHT22;11878;51.774;7.220;2023-04-06T09:38:34;11.10;67.60
23411;DHT22;11878;51.774;7.220;2023-04-06T09:41:36;11.00;64.10
23411;DHT22;11878;51.774;7.220;2023-04-06T09:44:38;11.30;65.60
23411;DHT22;11878;51.774;7.220;2023-04-06T09:47:43;12.10;66.50
23411;DHT22;11878;51.774;7.220;2023-04-06T09:50:47;11.80;60.90
23411;DHT22;11878;51.774;7.220;2023-04-06T09:53:52;11.40;61.10
23411;DHT22;11878;51.774;7.220;2023-04-06T10:00:05;11.70;59.20
23411;DHT22;11878;51.774;7.220;2023-04-06T10:03:40;12.00;58.60
23411;DHT22;11878;51.774;7.220;2023-04-06T10:06:46;12.20;60.80
23411;DHT22;11878;51.774;7.220;2023-04-06T10:09:54;12.50;57.60
23411;DHT22;11878;51.774;7.220;2023-04-06T10:12:57;13.20;65.70
23411;DHT22;11878;51.774;7.220;2023-04-06T10:16:03;13.90;60.40
23411;DHT22;11878;51.774;7.220;2023-04-06T10:19:18;13.40;61.40
23411;DHT22;11878;51.774;7.220;2023-04-06T10:22:49;14.00;52.10
23411;DHT22;11878;51.774;7.220;2023-04-06T10:25:57;15.20;49.70
23411;DHT22;11878;51.774;7.220;2023-04-06T10:29:03;13.60;55.20
23411;DHT22;11878;51.774;7.220;2023-04-06T10:32:09;13.90;54.80
23411;DHT22;11878;51.774;7.220;2023-04-06T10:35:11;14.30;51.70
23411;DHT22;11878;51.774;7.220;2023-04-06T10:38:15;13.70;46.80
23411;DHT22;11878;51.774;7.220;2023-04-06T10:41:21;13.70;52.10
23411;DHT22;11878;51.774;7.220;2023-04-06T10:44:24;14.20;46.90
23411;DHT22;11878;51.774;7.220;2023-04-06T10:47:26;13.50;46.00
23411;DHT22;11878;51.774;7.220;2023-04-06T10:50:29;14.40;47.70
23411;DHT22;11878;51.774;7.220;2023-04-06T10:53:33;14.50;51.80
23411;DHT22;11878;51.774;7.220;2023-04-06T10:56:37;14.50;48.90
23411;DHT22;11878;51.774;7.220;2023-04-06T10:59:44;14.50;46.30
23411;DHT22;11878;51.774;7.220;2023-04-06T11:02:49;14.50;48.70
23411;DHT22;11878;51.774;7.220;2023-04-06T11:05:51;13.90;44.30
23411;DHT22;11878;51.774;7.220;2023-04-06T11:08:53;14.90;45.90
23411;DHT22;11878;51.774;7.220;2023-04-06T11:11:56;14.10;47.00
23411;DHT22;11878;51.774;7.220;2023-04-06T11:15:00;14.40;46.50
23411;DHT22;11878;51.774;7.220;2023-04-06T11:18:05;14.40;46.80
23411;DHT22;11878;51.774;7.220;2023-04-06T11:21:08;14.80;45.60
23411;DHT22;11878;51.774;7.220;2023-04-06T11:24:16;14.50;46.20
23411;DHT22;11878;51.774;7.220;2023-04-06T11:27:21;14.40;44.30
23411;DHT22;11878;51.774;7.220;2023-04-06T11:30:23;14.70;44.50
23411;DHT22;11878;51.774;7.220;2023-04-06T11:33:25;14.70;45.50
23411;DHT22;11878;51.774;7.220;2023-04-06T11:36:27;15.10;45.30
23411;DHT22;11878;51.774;7.220;2023-04-06T11:39:32;15.50;45.70
23411;DHT22;11878;51.774;7.220;2023-04-06T11:42:38;15.80;45.30
23411;DHT22;11878;51.774;7.220;2023-04-06T11:45:44;14.90;42.20
23411;DHT22;11878;51.774;7.220;2023-04-06T11:48:46;15.60;42.20
23411;DHT22;11878;51.774;7.220;2023-04-06T11:51:48;14.80;42.10
23411;DHT22;11878;51.774;7.220;2023-04-06T11:54:51;14.80;40.20
23411;DHT22;11878;51.774;7.220;2023-04-06T11:57:53;15.70;42.60
23411;DHT22;11878;51.774;7.220;2023-04-06T12:01:03;16.00;42.60
23411;DHT22;11878;51.774;7.220;2023-04-06T12:04:05;15.40;40.50
23411;DHT22;11878;51.774;7.220;2023-04-06T12:07:08;14.90;41.60
23411;DHT22;11878;51.774;7.220;2023-04-06T12:10:10;14.70;42.50
23411;DHT22;11878;51.774;7.220;2023-04-06T12:13:11;15.90;43.50
23411;DHT22;11878;51.774;7.220;2023-04-06T12:16:13;16.10;43.10
23411;DHT22;11878;51.774;7.220;2023-04-06T12:19:16;15.10;44.00
23411;DHT22;11878;51.774;7.220;2023-04-06T12:22:18;15.60;44.70
23411;DHT22;11878;51.774;7.220;2023-04-06T12:25:19;15.60;44.80
23411;DHT22;11878;51.774;7.220;2023-04-06T12:28:22;14.50;46.20
23411;DHT22;11878;51.774;7.220;2023-04-06T12:31:28;15.60;47.00
23411;DHT22;11878;51.774;7.220;2023-04-06T12:34:30;15.20;47.00
23411;DHT22;11878;51.774;7.220;2023-04-06T12:37:32;14.40;46.30
23411;DHT22;11878;51.774;7.220;2023-04-06T12:40:38;15.30;47.30
23411;DHT22;11878;51.774;7.220;2023-04-06T12:43:42;15.60;48.10
23411;DHT22;11878;51.774;7.220;2023-04-06T12:46:45;14.60;46.50
23411;DHT22;11878;51.774;7.220;2023-04-06T12:49:47;14.70;46.20
23411;DHT22;11878;51.774;7.220;2023-04-06T12:52:49;14.90;46.00
23411;DHT22;11878;51.774;7.220;2023-04-06T12:55:54;15.30;45.60
23411;DHT22;11878;51.774;7.220;2023-04-06T12:58:56;15.40;47.70
23411;DHT22;11878;51.774;7.220;2023-04-06T13:01:58;15.90;49.00
23411;DHT22;11878;51.774;7.220;2023-04-06T13:05:00;15.30;49.00
23411;DHT22;11878;51.774;7.220;2023-04-06T13:08:02;14.50;46.10
23411;DHT22;11878;51.774;7.220;2023-04-06T13:11:05;14.60;46.00
23411;DHT22;11878;51.774;7.220;2023-04-06T13:14:08;15.80;50.10
23411;DHT22;11878;51.774;7.220;2023-04-06T13:17:10;14.40;49.70
23411;DHT22;11878;51.774;7.220;2023-04-06T13:20:12;14.70;48.00
23411;DHT22;11878;51.774;7.220;2023-04-06T13:23:14;15.10;47.60
23411;DHT22;11878;51.774;7.220;2023-04-06T13:26:16;14.70;49.40
23411;DHT22;11878;51.774;7.220;2023-04-06T13:29:19;15.80;50.20
23411;DHT22;11878;51.774;7.220;2023-04-06T13:32:21;15.20;51.20
23411;DHT22;11878;51.774;7.220;2023-04-06T13:35:23;15.50;51.30
23411;DHT22;11878;51.774;7.220;2023-04-06T13:38:25;15.50;53.10
23411;DHT22;11878;51.774;7.220;2023-04-06T13:41:28;14.60;51.30
23411;DHT22;11878;51.774;7.220;2023-04-06T13:44:30;15.90;54.10
23411;DHT22;11878;51.774;7.220;2023-04-06T13:47:31;14.40;49.70
23411;DHT22;11878;51.774;7.220;2023-04-06T13:50:36;15.30;52.20
23411;DHT22;11878;51.774;7.220;2023-04-06T13:53:39;15.50;53.60
23411;DHT22;11878;51.774;7.220;2023-04-06T13:56:42;15.60;50.00
23411;DHT22;11878;51.774;7.220;2023-04-06T13:59:44;14.30;50.50
23411;DHT22;11878;51.774;7.220;2023-04-06T14:02:46;13.80;51.70
23411;DHT22;11878;51.774;7.220;2023-04-06T14:05:48;14.90;53.20
23411;DHT22;11878;51.774;7.220;2023-04-06T14:08:50;14.60;54.20
23411;DHT22;11878;51.774;7.220;2023-04-06T14:11:54;13.20;54.70
23411;DHT22;11878;51.774;7.220;2023-04-06T14:14:56;14.50;56.70
23411;DHT22;11878;51.774;7.220;2023-04-06T14:17:58;13.90;55.50
23411;DHT22;11878;51.774;7.220;2023-04-06T14:21:00;14.20;56.30
23411;DHT22;11878;51.774;7.220;2023-04-06T14:24:02;13.20;57.40
23411;DHT22;11878;51.774;7.220;2023-04-06T14:27:04;14.50;57.80
23411;DHT22;11878;51.774;7.220;2023-04-06T14:30:09;14.20;57.60
23411;DHT22;11878;51.774;7.220;2023-04-06T14:33:12;13.60;57.90
23411;DHT22;11878;51.774;7.220;2023-04-06T14:36:14;13.10;57.40
23411;DHT22;11878;51.774;7.220;2023-04-06T14:39:16;13.70;59.10
23411;DHT22;11878;51.774;7.220;2023-04-06T14:42:18;14.20;60.10
23411;DHT22;11878;51.774;7.220;2023-04-06T14:45:19;13.00;59.70
23411;DHT22;11878;51.774;7.220;2023-04-06T14:48:23;13.00;62.20
23411;DHT22;11878;51.774;7.220;2023-04-06T14:51:28;13.90;63.00
23411;DHT22;11878;51.774;7.220;2023-04-06T14:54:30;14.10;65.20
23411;DHT22;11878;51.774;7.220;2023-04-06T14:57:32;13.30;67.40
23411;DHT22;11878;51.774;7.220;2023-04-06T15:00:37;13.80;67.10
23411;DHT22;11878;51.774;7.220;2023-04-06T15:03:39;13.90;70.20
23411;DHT22;11878;51.774;7.220;2023-04-06T15:06:42;13.30;66.50
23411;DHT22;11878;51.774;7.220;2023-04-06T15:09:44;14.50;66.80
23411;DHT22;11878;51.774;7.220;2023-04-06T15:12:46;14.10;68.60
23411;DHT22;11878;51.774;7.220;2023-04-06T15:15:50;12.70;69.30
23411;DHT22;11878;51.774;7.220;2023-04-06T15:18:53;13.90;73.90
23411;DHT22;11878;51.774;7.220;2023-04-06T15:21:55;13.50;74.40
23411;DHT22;11878;51.774;7.220;2023-04-06T15:24:58;13.00;79.00
23411;DHT22;11878;51.774;7.220;2023-04-06T15:28:00;13.50;78.40
23411;DHT22;11878;51.774;7.220;2023-04-06T15:31:02;12.00;78.60
23411;DHT22;11878;51.774;7.220;2023-04-06T15:34:12;12.00;80.00
23411;DHT22;11878;51.774;7.220;2023-04-06T15:37:14;12.30;79.90
23411;DHT22;11878;51.774;7.220;2023-04-06T15:40:16;11.70;82.60
23411;DHT22;11878;51.774;7.220;2023-04-06T15:43:18;12.30;86.60
23411;DHT22;11878;51.774;7.220;2023-04-06T15:46:21;11.80;86.30
23411;DHT22;11878;51.774;7.220;2023-04-06T15:49:23;12.40;93.10
23411;DHT22;11878;51.774;7.220;2023-04-06T15:52:26;12.30;92.70
23411;DHT22;11878;51.774;7.220;2023-04-06T15:55:29;11.20;91.80
23411;DHT22;11878;51.774;7.220;2023-04-06T15:58:38;11.10;92.60
23411;DHT22;11878;51.774;7.220;2023-04-06T16:01:42;11.20;93.20
23411;DHT22;11878;51.774;7.220;2023-04-06T16:04:44;12.40;96.00
23411;DHT22;11878;51.774;7.220;2023-04-06T16:07:46;12.20;96.70
23411;DHT22;11878;51.774;7.220;2023-04-06T16:10:49;11.70;99.20
23411;DHT22;11878;51.774;7.220;2023-04-06T16:13:52;10.90;99.90
23411;DHT22;11878;51.774;7.220;2023-04-06T16:16:56;10.90;99.90
23411;DHT22;11878;51.774;7.220;2023-04-06T16:19:58;12.10;99.90
23411;DHT22;11878;51.774;7.220;2023-04-06T16:23:00;10.80;99.90
23411;DHT22;11878;51.774;7.220;2023-04-06T16:26:10;11.50;99.90
23411;DHT22;11878;51.774;7.220;2023-04-06T16:29:13;10.70;99.90
23411;DHT22;11878;51.774;7.220;2023-04-06T16:32:17;10.20;99.90
23411;DHT22;11878;51.774;7.220;2023-04-06T16:35:19;10.80;99.90
23411;DHT22;11878;51.774;7.220;2023-04-06T16:38:22;10.10;99.90
23411;DHT22;11878;51.774;7.220;2023-04-06T16:41:26;10.30;99.90
23411;DHT22;11878;51.774;7.220;2023-04-06T16:44:28;10.20;99.90
23411;DHT22;11878;51.774;7.220;2023-04-06T16:47:31;11.40;99.90
23411;DHT22;11878;51.774;7.220;2023-04-06T16:50:35;10.40;99.90
23411;DHT22;11878;51.774;7.220;2023-04-06T16:53:37;10.90;99.90
23411;DHT22;11878;51.774;7.220;2023-04-06T16:56:39;11.30;99.90
23411;DHT22;11878;51.774;7.220;2023-04-06T16:59:41;9.90;99.90
23411;DHT22;11878;51.774;7.220;2023-04-06T17:02:46;11.30;99.90
23411;DHT22;11878;51.774;7.220;2023-04-06T17:05:48;10.80;99.90
23411;DHT22;11878;51.774;7.220;2023-04-06T17:08:53;10.60;99.90
23411;DHT22;11878;51.774;7.220;2023-04-06T17:11:55;9.50;99.90
23411;DHT22;11878;51.774;7.220;2023-04-06T17:14:58;9.00;99.90
23411;DHT22;11878;51.774;7.220;2023-04-06T17:18:00;9.30;99.90
23411;DHT22;11878;51.774;7.220;2023-04-06T17:21:08;10.60;99.90
23411;DHT22;11878;51.774;7.220;2023-04-06T17:24:15;9.70;99.90
23411;DHT22;11878;51.774;7.220;2023-04-06T17:27:21;9.80;99.90
23411;DHT22;11878;51.774;7.220;2023-04-06T17:30:30;10.00;99.90
23411;DHT22;11878;51.774;7.220;2023-04-06T17:33:36;9.20;99.90
23411;DHT22;11878;51.774;7.220;2023-04-06T17:36:38;8.90;99.90
23411;DHT22;11878;51.774;7.220;2023-04-06T17:39:40;8.70;99.90
23411;DHT22;11878;51.774;7.220;2023-04-06T17:42:42;8.70;99.90
23411;DHT22;11878;51.774;7.220;2023-04-06T17:45:50;9.80;99.90
23411;DHT22;11878;51.774;7.220;2023-04-06T17:48:57;9.00;99.90
23411;DHT22;11878;51.774;7.220;2023-04-06T17:51:59;9.30;99.90
23411;DHT22;11878;51.774;7.220;2023-04-06T17:55:01;9.50;99.90
23411;DHT22;11878;51.774;7.220;2023-04-06T17:58:04;8.40;99.90
23411;DHT22;11878;51.774;7.220;2023-04-06T18:01:07;9.10;99.90
23411;DHT22;11878;51.774;7.220;2023-04-06T18:04:11;8.40;99.90
23411;DHT22;11878;51.774;7.220;2023-04-06T18:07:16;8.40;99.90
23411;DHT22;11878;51.774;7.220;2023-04-06T18:10:19;8.80;99.90
23411;DHT22;11878;51.774;7.220;2023-04-06T18:13:21;9.80;99.90
23411;DHT22;11878;51.774;7.220;2023-04-06T18:16:25;9.10;99.90
23411;DHT22;11878;51.774;7.220;2023-04-06T18:19:31;8.30;99.90
23411;DHT22;11878;51.774;7.220;2023-04-06T18:22:38;7.80;99.90
23411;DHT22;11878;51.774;7.220;2023-04-06T18:25:43;8.00;99.90
23411;DHT22;11878;51.774;7.220;2023-04-06T18:28:45;8.10;99.90
23411;DHT22;11878;51.774;7.220;2023-04-06T18:31:47;8.60;99.90
23411;DHT22;11878;51.774;7.220;2023-04-06T18:34:52;8.10;99.90
23411;DHT22;11878;51.774;7.220;2023-04-06T18:37:58;8.10;99.90
23411;DHT22;11878;51.774;7.220;2023-04-06T18:41:00;9.50;99.90
23411;DHT22;11878;51.774;7.220;2023-04-06T18:44:02;8.30;99.90
23411;DHT22;11878;51.774;7.220;2023-04-06T18:47:04;8.30;99.90
23411;DHT22;11878;51.774;7.220;2023-04-06T18:50:07;8.70;99.90
23411;DHT22;11878;51.774;7.220;2023-04-06T18:53:09;7.90;99.90
23411;DHT22;11878;51.774;7.220;2023-04-06T18:56:19;7.70;99.90
23411;DHT22;11878;51.774;7.220;2023-04-06T18:59:22;7.80;99.90
23411;DHT22;11878;51.774;7.220;2023-04-06T19:02:24;8.20;99.90
23411;DHT22;11878;51.774;7.220;2023-04-06T19:05:26;7.70;99.90
23411;DHT22;11878;51.774;7.220;2023-04-06T19:08:28;8.60;99.90
23411;DHT22;11878;51.774;7.220;2023-04-06T19:11:30;8.80;99.90
23411;DHT22;11878;51.774;7.220;2023-04-06T19:14:33;8.20;99.90
23411;DHT22;11878;51.774;7.220;2023-04-06T19:17:35;8.50;99.90
23411;DHT22;11878;51.774;7.220;2023-04-06T19:20:38;7.80;99.90
23411;DHT22;11878;51.774;7.220;2023-04-06T19:23:44;7.50;99.90
23411;DHT22;11878;51.774;7.220;2023-04-06T19:26:47;8.00;99.90
23411;DHT22;11878;51.774;7.220;2023-04-06T19:29:49;7.40;99.90
23411;DHT22;11878;51.774;7.220;2023-04-06T19:32:56;7.80;99.90
23411;DHT22;11878;51.774;7.220;2023-04-06T19:35:58;7.80;99.90
23411;DHT22;11878;51.774;7.220;2023-04-06T19:39:00;7.60;99.90
23411;DHT22;11878;51.774;7.220;2023-04-06T19:42:04;8.50;99.90